sensor_id;sensor_type;location;lat;lon;timestamp;P1;durP1;ratioP1;P2;durP2;ratioP2
12788;SDS011;6458;42.710;23.192;2022-07-23T00:00:08;5.10;;;4.73;;
12788;SDS011;6458;42.710;23.192;2022-07-23T00:02:35;4.87;;;4.57;;
12788;SDS011;6458;42.710;23.192;2022-07-23T00:05:02;5.40;;;5.00;;
12788;SDS011;6458;42.710;23.192;2022-07-23T00:07:28;5.63;;;5.13;;
12788;SDS011;6458;42.710;23.192;2022-07-23T00:09:55;4.93;;;4.47;;
12788;SDS011;6458;42.710;23.192;2022-07-23T00:12:22;5.43;;;5.03;;
12788;SDS011;6458;42.710;23.192;2022-07-23T00:14:49;6.10;;;5.57;;
12788;SDS011;6458;42.710;23.192;2022-07-23T00:17:17;5.27;;;4.87;;
12788;SDS011;6458;42.710;23.192;2022-07-23T00:19:43;6.10;;;5.60;;
12788;SDS011;6458;42.710;23.192;2022-07-23T00:22:10;5.50;;;5.00;;
12788;SDS011;6458;42.710;23.192;2022-07-23T00:24:37;6.47;;;4.87;;
12788;SDS011;6458;42.710;23.192;2022-07-23T00:27:04;6.17;;;5.67;;
12788;SDS011;6458;42.710;23.192;2022-07-23T00:29:31;5.47;;;5.07;;
12788;SDS011;6458;42.710;23.192;2022-07-23T00:31:58;5.27;;;4.80;;
12788;SDS011;6458;42.710;23.192;2022-07-23T00:34:26;5.97;;;5.37;;
12788;SDS011;6458;42.710;23.192;2022-07-23T00:36:53;5.63;;;5.13;;
12788;SDS011;6458;42.710;23.192;2022-07-23T00:39:21;5.83;;;5.33;;
12788;SDS011;6458;42.710;23.192;2022-07-23T00:41:48;5.57;;;5.07;;
12788;SDS011;6458;42.710;23.192;2022-07-23T00:44:18;6.43;;;5.40;;
12788;SDS011;6458;42.710;23.192;2022-07-23T00:46:46;5.67;;;5.20;;
12788;SDS011;6458;42.710;23.192;2022-07-23T00:49:14;6.00;;;5.40;;
12788;SDS011;6458;42.710;23.192;2022-07-23T00:51:42;6.53;;;5.93;;
12788;SDS011;6458;42.710;23.192;2022-07-23T00:54:09;5.87;;;5.40;;
12788;SDS011;6458;42.710;23.192;2022-07-23T00:56:37;6.30;;;5.70;;
12788;SDS011;6458;42.710;23.192;2022-07-23T00:59:04;6.93;;;6.30;;
12788;SDS011;6458;42.710;23.192;2022-07-23T01:01:31;7.43;;;6.70;;
12788;SDS011;6458;42.710;23.192;2022-07-23T01:03:58;6.97;;;5.90;;
12788;SDS011;6458;42.710;23.192;2022-07-23T01:06:25;6.50;;;6.00;;
12788;SDS011;6458;42.710;23.192;2022-07-23T01:08:56;6.73;;;5.73;;
12788;SDS011;6458;42.710;23.192;2022-07-23T01:11:22;6.20;;;5.70;;
12788;SDS011;6458;42.710;23.192;2022-07-23T01:13:49;6.13;;;5.63;;
12788;SDS011;6458;42.710;23.192;2022-07-23T01:16:16;10.10;;;5.97;;
12788;SDS011;6458;42.710;23.192;2022-07-23T01:18:43;5.87;;;5.37;;
12788;SDS011;6458;42.710;23.192;2022-07-23T01:21:10;5.93;;;5.43;;
12788;SDS011;6458;42.710;23.192;2022-07-23T01:23:39;5.37;;;4.80;;
12788;SDS011;6458;42.710;23.192;2022-07-23T01:26:06;6.07;;;5.57;;
12788;SDS011;6458;42.710;23.192;2022-07-23T01:28:33;6.63;;;6.10;;
12788;SDS011;6458;42.710;23.192;2022-07-23T01:30:59;5.70;;;5.23;;
12788;SDS011;6458;42.710;23.192;2022-07-23T01:33:26;5.47;;;5.03;;
12788;SDS011;6458;42.710;23.192;2022-07-23T01:35:53;5.73;;;5.33;;
12788;SDS011;6458;42.710;23.192;2022-07-23T01:38:20;6.03;;;5.30;;
12788;SDS011;6458;42.710;23.192;2022-07-23T01:40:48;5.63;;;5.17;;
12788;SDS011;6458;42.710;23.192;2022-07-23T01:43:14;6.03;;;5.53;;
12788;SDS011;6458;42.710;23.192;2022-07-23T01:45:41;5.57;;;5.10;;
12788;SDS011;6458;42.710;23.192;2022-07-23T01:48:09;5.60;;;5.10;;
12788;SDS011;6458;42.710;23.192;2022-07-23T01:50:36;5.53;;;5.03;;
12788;SDS011;6458;42.710;23.192;2022-07-23T01:53:02;5.97;;;5.20;;
12788;SDS011;6458;42.710;23.192;2022-07-23T01:55:29;5.60;;;5.10;;
12788;SDS011;6458;42.710;23.192;2022-07-23T01:57:57;5.80;;;5.17;;
12788;SDS011;6458;42.710;23.192;2022-07-23T02:00:24;5.50;;;4.73;;
12788;SDS011;6458;42.710;23.192;2022-07-23T02:02:51;5.20;;;4.80;;
12788;SDS011;6458;42.710;23.192;2022-07-23T02:05:17;6.00;;;5.40;;
12788;SDS011;6458;42.710;23.192;2022-07-23T02:07:44;5.10;;;4.73;;
12788;SDS011;6458;42.710;23.192;2022-07-23T02:10:11;6.20;;;5.30;;
12788;SDS011;6458;42.710;23.192;2022-07-23T02:12:37;5.23;;;4.60;;
12788;SDS011;6458;42.710;23.192;2022-07-23T02:15:08;5.10;;;4.80;;
12788;SDS011;6458;42.710;23.192;2022-07-23T02:17:35;5.37;;;4.63;;
12788;SDS011;6458;42.710;23.192;2022-07-23T02:20:02;5.00;;;4.50;;
12788;SDS011;6458;42.710;23.192;2022-07-23T02:22:29;5.50;;;5.10;;
12788;SDS011;6458;42.710;23.192;2022-07-23T02:24:56;5.50;;;4.83;;
12788;SDS011;6458;42.710;23.192;2022-07-23T02:27:22;5.07;;;4.53;;
12788;SDS011;6458;42.710;23.192;2022-07-23T02:29:49;4.90;;;4.60;;
12788;SDS011;6458;42.710;23.192;2022-07-23T02:32:18;5.10;;;4.63;;
12788;SDS011;6458;42.710;23.192;2022-07-23T02:34:46;5.13;;;4.73;;
12788;SDS011;6458;42.710;23.192;2022-07-23T02:37:12;5.40;;;5.00;;
12788;SDS011;6458;42.710;23.192;2022-07-23T02:39:39;5.47;;;4.97;;
12788;SDS011;6458;42.710;23.192;2022-07-23T02:42:06;4.90;;;4.50;;
12788;SDS011;6458;42.710;23.192;2022-07-23T02:44:33;4.90;;;4.60;;
12788;SDS011;6458;42.710;23.192;2022-07-23T02:47:00;5.27;;;4.87;;
12788;SDS011;6458;42.710;23.192;2022-07-23T02:49:28;5.33;;;4.93;;
12788;SDS011;6458;42.710;23.192;2022-07-23T02:51:55;4.90;;;4.50;;
12788;SDS011;6458;42.710;23.192;2022-07-23T02:54:21;4.80;;;4.47;;
12788;SDS011;6458;42.710;23.192;2022-07-23T02:56:48;5.30;;;4.80;;
12788;SDS011;6458;42.710;23.192;2022-07-23T02:59:16;5.50;;;5.10;;
12788;SDS011;6458;42.710;23.192;2022-07-23T03:01:43;5.83;;;4.97;;
12788;SDS011;6458;42.710;23.192;2022-07-23T03:04:10;7.20;;;4.83;;
12788;SDS011;6458;42.710;23.192;2022-07-23T03:06:38;4.53;;;4.17;;
12788;SDS011;6458;42.710;23.192;2022-07-23T03:09:05;6.00;;;4.70;;
12788;SDS011;6458;42.710;23.192;2022-07-23T03:11:32;4.67;;;4.33;;
12788;SDS011;6458;42.710;23.192;2022-07-23T03:13:58;5.13;;;4.43;;
12788;SDS011;6458;42.710;23.192;2022-07-23T03:16:25;4.70;;;4.40;;
12788;SDS011;6458;42.710;23.192;2022-07-23T03:18:51;5.37;;;4.87;;
12788;SDS011;6458;42.710;23.192;2022-07-23T03:21:18;8.83;;;5.40;;
12788;SDS011;6458;42.710;23.192;2022-07-23T03:23:46;6.03;;;5.50;;
12788;SDS011;6458;42.710;23.192;2022-07-23T03:26:13;5.83;;;5.23;;
12788;SDS011;6458;42.710;23.192;2022-07-23T03:28:40;6.10;;;5.50;;
12788;SDS011;6458;42.710;23.192;2022-07-23T03:31:07;5.60;;;4.77;;
12788;SDS011;6458;42.710;23.192;2022-07-23T03:33:33;6.03;;;4.73;;
12788;SDS011;6458;42.710;23.192;2022-07-23T03:36:00;5.37;;;4.87;;
12788;SDS011;6458;42.710;23.192;2022-07-23T03:38:27;5.60;;;5.10;;
12788;SDS011;6458;42.710;23.192;2022-07-23T03:40:58;5.73;;;5.00;;
12788;SDS011;6458;42.710;23.192;2022-07-23T03:43:24;6.13;;;5.33;;
12788;SDS011;6458;42.710;23.192;2022-07-23T03:45:51;5.93;;;5.47;;
12788;SDS011;6458;42.710;23.192;2022-07-23T03:48:18;5.63;;;5.13;;
12788;SDS011;6458;42.710;23.192;2022-07-23T03:50:44;5.60;;;5.20;;
12788;SDS011;6458;42.710;23.192;2022-07-23T03:53:11;6.63;;;5.50;;
12788;SDS011;6458;42.710;23.192;2022-07-23T03:55:37;5.77;;;5.27;;
12788;SDS011;6458;42.710;23.192;2022-07-23T03:58:05;5.77;;;5.27;;
12788;SDS011;6458;42.710;23.192;2022-07-23T04:00:32;6.00;;;5.50;;
12788;SDS011;6458;42.710;23.192;2022-07-23T04:02:59;5.83;;;5.40;;
12788;SDS011;6458;42.710;23.192;2022-07-23T04:05:25;6.00;;;5.40;;
12788;SDS011;6458;42.710;23.192;2022-07-23T04:07:52;5.43;;;5.00;;
12788;SDS011;6458;42.710;23.192;2022-07-23T04:10:19;7.47;;;4.83;;
12788;SDS011;6458;42.710;23.192;2022-07-23T04:12:45;4.87;;;4.57;;
12788;SDS011;6458;42.710;23.192;2022-07-23T04:15:14;5.10;;;4.70;;
12788;SDS011;6458;42.710;23.192;2022-07-23T04:17:40;5.30;;;4.90;;
12788;SDS011;6458;42.710;23.192;2022-07-23T04:20:09;4.80;;;4.40;;
12788;SDS011;6458;42.710;23.192;2022-07-23T04:22:36;6.00;;;5.60;;
12788;SDS011;6458;42.710;23.192;2022-07-23T04:25:02;5.53;;;5.13;;
12788;SDS011;6458;42.710;23.192;2022-07-23T04:27:29;5.67;;;5.17;;
12788;SDS011;6458;42.710;23.192;2022-07-23T04:29:58;5.27;;;4.97;;
12788;SDS011;6458;42.710;23.192;2022-07-23T04:32:26;5.23;;;4.80;;
12788;SDS011;6458;42.710;23.192;2022-07-23T04:34:53;5.93;;;5.00;;
12788;SDS011;6458;42.710;23.192;2022-07-23T04:37:19;5.20;;;4.70;;
12788;SDS011;6458;42.710;23.192;2022-07-23T04:39:46;4.50;;;4.20;;
12788;SDS011;6458;42.710;23.192;2022-07-23T04:42:13;4.97;;;4.67;;
12788;SDS011;6458;42.710;23.192;2022-07-23T04:44:39;6.18;;;5.57;;
12788;SDS011;6458;42.710;23.192;2022-07-23T04:47:06;5.80;;;5.30;;
12788;SDS011;6458;42.710;23.192;2022-07-23T04:49:34;6.95;;;5.43;;
12788;SDS011;6458;42.710;23.192;2022-07-23T04:52:01;6.38;;;5.97;;
12788;SDS011;6458;42.710;23.192;2022-07-23T04:54:28;6.28;;;5.78;;
12788;SDS011;6458;42.710;23.192;2022-07-23T04:56:54;6.15;;;5.65;;
12788;SDS011;6458;42.710;23.192;2022-07-23T04:59:21;6.68;;;6.05;;
12788;SDS011;6458;42.710;23.192;2022-07-23T05:01:48;5.95;;;5.38;;
12788;SDS011;6458;42.710;23.192;2022-07-23T05:04:14;6.43;;;5.78;;
12788;SDS011;6458;42.710;23.192;2022-07-23T05:06:42;5.72;;;5.32;;
12788;SDS011;6458;42.710;23.192;2022-07-23T05:09:09;6.55;;;6.05;;
12788;SDS011;6458;42.710;23.192;2022-07-23T05:11:36;6.38;;;5.88;;
12788;SDS011;6458;42.710;23.192;2022-07-23T05:14:02;6.65;;;6.10;;
12788;SDS011;6458;42.710;23.192;2022-07-23T05:16:29;6.18;;;5.68;;
12788;SDS011;6458;42.710;23.192;2022-07-23T05:18:56;6.30;;;5.75;;
12788;SDS011;6458;42.710;23.192;2022-07-23T05:21:22;6.70;;;6.20;;
12788;SDS011;6458;42.710;23.192;2022-07-23T05:23:50;6.57;;;6.07;;
12788;SDS011;6458;42.710;23.192;2022-07-23T05:26:17;6.85;;;5.93;;
12788;SDS011;6458;42.710;23.192;2022-07-23T05:28:44;7.57;;;6.55;;
12788;SDS011;6458;42.710;23.192;2022-07-23T05:31:11;6.93;;;6.28;;
12788;SDS011;6458;42.710;23.192;2022-07-23T05:33:37;7.40;;;6.80;;
12788;SDS011;6458;42.710;23.192;2022-07-23T05:36:04;6.85;;;6.25;;
12788;SDS011;6458;42.710;23.192;2022-07-23T05:38:31;6.88;;;6.18;;
12788;SDS011;6458;42.710;23.192;2022-07-23T05:41:00;7.15;;;6.53;;
12788;SDS011;6458;42.710;23.192;2022-07-23T05:43:26;7.40;;;6.70;;
12788;SDS011;6458;42.710;23.192;2022-07-23T05:45:53;7.05;;;6.55;;
12788;SDS011;6458;42.710;23.192;2022-07-23T05:48:20;6.63;;;6.13;;
12788;SDS011;6458;42.710;23.192;2022-07-23T05:50:47;6.80;;;6.20;;
12788;SDS011;6458;42.710;23.192;2022-07-23T05:53:13;6.83;;;6.27;;
12788;SDS011;6458;42.710;23.192;2022-07-23T05:55:40;6.95;;;5.90;;
12788;SDS011;6458;42.710;23.192;2022-07-23T05:58:08;7.47;;;6.87;;
12788;SDS011;6458;42.710;23.192;2022-07-23T06:00:35;6.70;;;6.10;;
12788;SDS011;6458;42.710;23.192;2022-07-23T06:03:02;7.30;;;6.63;;
12788;SDS011;6458;42.710;23.192;2022-07-23T06:05:28;6.53;;;6.03;;
12788;SDS011;6458;42.710;23.192;2022-07-23T06:07:55;6.93;;;6.37;;
12788;SDS011;6458;42.710;23.192;2022-07-23T06:10:22;7.23;;;6.67;;
12788;SDS011;6458;42.710;23.192;2022-07-23T06:12:48;6.60;;;6.00;;
12788;SDS011;6458;42.710;23.192;2022-07-23T06:15:17;6.57;;;5.97;;
12788;SDS011;6458;42.710;23.192;2022-07-23T06:17:43;6.63;;;6.13;;
12788;SDS011;6458;42.710;23.192;2022-07-23T06:20:11;6.70;;;6.10;;
12788;SDS011;6458;42.710;23.192;2022-07-23T06:22:38;6.70;;;6.30;;
12788;SDS011;6458;42.710;23.192;2022-07-23T06:25:05;6.73;;;6.30;;
12788;SDS011;6458;42.710;23.192;2022-07-23T06:27:32;7.60;;;6.97;;
12788;SDS011;6458;42.710;23.192;2022-07-23T06:29:59;6.90;;;6.40;;
12788;SDS011;6458;42.710;23.192;2022-07-23T06:32:27;6.77;;;6.37;;
12788;SDS011;6458;42.710;23.192;2022-07-23T06:34:55;7.27;;;6.67;;
12788;SDS011;6458;42.710;23.192;2022-07-23T06:37:22;7.10;;;6.47;;
12788;SDS011;6458;42.710;23.192;2022-07-23T06:39:49;7.50;;;6.83;;
12788;SDS011;6458;42.710;23.192;2022-07-23T06:42:15;6.80;;;6.20;;
12788;SDS011;6458;42.710;23.192;2022-07-23T06:44:42;7.13;;;6.43;;
12788;SDS011;6458;42.710;23.192;2022-07-23T06:47:09;7.00;;;6.40;;
12788;SDS011;6458;42.710;23.192;2022-07-23T06:49:37;7.33;;;6.73;;
12788;SDS011;6458;42.710;23.192;2022-07-23T06:52:06;8.30;;;6.57;;
12788;SDS011;6458;42.710;23.192;2022-07-23T06:54:32;11.60;;;7.00;;
12788;SDS011;6458;42.710;23.192;2022-07-23T06:56:59;7.63;;;6.97;;
12788;SDS011;6458;42.710;23.192;2022-07-23T06:59:26;7.90;;;7.17;;
12788;SDS011;6458;42.710;23.192;2022-07-23T07:01:53;7.50;;;6.90;;
12788;SDS011;6458;42.710;23.192;2022-07-23T07:04:20;7.83;;;6.90;;
12788;SDS011;6458;42.710;23.192;2022-07-23T07:06:48;7.97;;;7.27;;
12788;SDS011;6458;42.710;23.192;2022-07-23T07:09:15;7.83;;;6.97;;
12788;SDS011;6458;42.710;23.192;2022-07-23T07:11:43;7.73;;;7.00;;
12788;SDS011;6458;42.710;23.192;2022-07-23T07:14:09;7.73;;;7.03;;
12788;SDS011;6458;42.710;23.192;2022-07-23T07:16:36;7.40;;;6.80;;
12788;SDS011;6458;42.710;23.192;2022-07-23T07:19:03;6.93;;;6.23;;
12788;SDS011;6458;42.710;23.192;2022-07-23T07:21:30;8.13;;;7.43;;
12788;SDS011;6458;42.710;23.192;2022-07-23T07:23:58;7.50;;;6.90;;
12788;SDS011;6458;42.710;23.192;2022-07-23T07:26:24;8.47;;;7.67;;
12788;SDS011;6458;42.710;23.192;2022-07-23T07:28:51;7.60;;;6.80;;
12788;SDS011;6458;42.710;23.192;2022-07-23T07:31:17;8.73;;;6.93;;
12788;SDS011;6458;42.710;23.192;2022-07-23T07:33:45;7.57;;;6.90;;
12788;SDS011;6458;42.710;23.192;2022-07-23T07:36:13;7.93;;;7.23;;
12788;SDS011;6458;42.710;23.192;2022-07-23T07:38:39;8.13;;;7.43;;
12788;SDS011;6458;42.710;23.192;2022-07-23T07:41:07;8.33;;;7.60;;
12788;SDS011;6458;42.710;23.192;2022-07-23T07:43:35;8.37;;;7.57;;
12788;SDS011;6458;42.710;23.192;2022-07-23T07:46:02;7.47;;;6.77;;
12788;SDS011;6458;42.710;23.192;2022-07-23T07:48:28;8.20;;;7.40;;
12788;SDS011;6458;42.710;23.192;2022-07-23T07:50:55;7.60;;;6.90;;
12788;SDS011;6458;42.710;23.192;2022-07-23T07:53:22;8.03;;;7.40;;
12788;SDS011;6458;42.710;23.192;2022-07-23T07:55:49;7.57;;;6.80;;
12788;SDS011;6458;42.710;23.192;2022-07-23T07:58:17;9.00;;;8.13;;
12788;SDS011;6458;42.710;23.192;2022-07-23T08:00:43;7.75;;;7.18;;
12788;SDS011;6458;42.710;23.192;2022-07-23T08:03:10;8.20;;;7.50;;
12788;SDS011;6458;42.710;23.192;2022-07-23T08:05:37;6.97;;;6.47;;
12788;SDS011;6458;42.710;23.192;2022-07-23T08:08:04;7.20;;;6.60;;
12788;SDS011;6458;42.710;23.192;2022-07-23T08:10:31;7.07;;;6.45;;
12788;SDS011;6458;42.710;23.192;2022-07-23T08:12:58;7.88;;;6.97;;
12788;SDS011;6458;42.710;23.192;2022-07-23T08:15:29;7.05;;;6.28;;
12788;SDS011;6458;42.710;23.192;2022-07-23T08:17:55;6.90;;;6.40;;
12788;SDS011;6458;42.710;23.192;2022-07-23T08:20:23;7.40;;;6.80;;
12788;SDS011;6458;42.710;23.192;2022-07-23T08:22:51;7.50;;;6.80;;
12788;SDS011;6458;42.710;23.192;2022-07-23T08:25:20;7.22;;;6.63;;
12788;SDS011;6458;42.710;23.192;2022-07-23T08:27:47;6.80;;;6.30;;
12788;SDS011;6458;42.710;23.192;2022-07-23T08:30:14;7.20;;;6.57;;
12788;SDS011;6458;42.710;23.192;2022-07-23T08:32:50;6.97;;;6.47;;
12788;SDS011;6458;42.710;23.192;2022-07-23T08:35:17;6.50;;;6.00;;
12788;SDS011;6458;42.710;23.192;2022-07-23T08:37:44;6.97;;;6.47;;
12788;SDS011;6458;42.710;23.192;2022-07-23T08:40:11;6.90;;;6.40;;
12788;SDS011;6458;42.710;23.192;2022-07-23T08:42:37;7.00;;;6.25;;
12788;SDS011;6458;42.710;23.192;2022-07-23T08:45:05;8.38;;;7.18;;
12788;SDS011;6458;42.710;23.192;2022-07-23T08:47:33;7.07;;;6.40;;
12788;SDS011;6458;42.710;23.192;2022-07-23T08:50:01;7.53;;;6.93;;
12788;SDS011;6458;42.710;23.192;2022-07-23T08:52:28;7.43;;;6.72;;
12788;SDS011;6458;42.710;23.192;2022-07-23T08:54:56;8.48;;;6.72;;
12788;SDS011;6458;42.710;23.192;2022-07-23T08:57:23;7.05;;;6.55;;
12788;SDS011;6458;42.710;23.192;2022-07-23T08:59:49;7.10;;;6.40;;
12788;SDS011;6458;42.710;23.192;2022-07-23T09:02:16;7.20;;;6.60;;
12788;SDS011;6458;42.710;23.192;2022-07-23T09:04:43;7.25;;;6.55;;
12788;SDS011;6458;42.710;23.192;2022-07-23T09:07:11;7.00;;;6.35;;
12788;SDS011;6458;42.710;23.192;2022-07-23T09:09:38;7.47;;;6.78;;
12788;SDS011;6458;42.710;23.192;2022-07-23T09:12:05;7.20;;;6.25;;
12788;SDS011;6458;42.710;23.192;2022-07-23T09:14:36;7.10;;;6.53;;
12788;SDS011;6458;42.710;23.192;2022-07-23T09:17:08;7.38;;;6.57;;
12788;SDS011;6458;42.710;23.192;2022-07-23T09:19:34;6.50;;;6.03;;
12788;SDS011;6458;42.710;23.192;2022-07-23T09:25:05;7.47;;;6.78;;
12788;SDS011;6458;42.710;23.192;2022-07-23T09:27:46;7.93;;;6.63;;
12788;SDS011;6458;42.710;23.192;2022-07-23T09:30:13;7.38;;;6.57;;
12788;SDS011;6458;42.710;23.192;2022-07-23T09:32:39;7.07;;;6.18;;
12788;SDS011;6458;42.710;23.192;2022-07-23T09:35:06;6.40;;;5.90;;
12788;SDS011;6458;42.710;23.192;2022-07-23T09:37:33;7.47;;;6.88;;
12788;SDS011;6458;42.710;23.192;2022-07-23T09:40:03;6.38;;;5.85;;
12788;SDS011;6458;42.710;23.192;2022-07-23T09:42:32;7.00;;;6.40;;
12788;SDS011;6458;42.710;23.192;2022-07-23T09:44:58;9.10;;;6.45;;
12788;SDS011;6458;42.710;23.192;2022-07-23T09:47:26;6.00;;;5.45;;
12788;SDS011;6458;42.710;23.192;2022-07-23T09:49:59;5.30;;;4.80;;
12788;SDS011;6458;42.710;23.192;2022-07-23T09:52:27;5.40;;;5.00;;
12788;SDS011;6458;42.710;23.192;2022-07-23T09:54:57;7.20;;;5.90;;
12788;SDS011;6458;42.710;23.192;2022-07-23T09:57:24;4.75;;;4.35;;
12788;SDS011;6458;42.710;23.192;2022-07-23T09:59:52;5.60;;;4.70;;
12788;SDS011;6458;42.710;23.192;2022-07-23T10:02:19;4.60;;;4.30;;
12788;SDS011;6458;42.710;23.192;2022-07-23T10:04:46;5.38;;;4.97;;
12788;SDS011;6458;42.710;23.192;2022-07-23T10:07:13;6.38;;;5.78;;
12788;SDS011;6458;42.710;23.192;2022-07-23T10:09:43;5.25;;;4.78;;
12788;SDS011;6458;42.710;23.192;2022-07-23T10:12:11;5.30;;;4.88;;
12788;SDS011;6458;42.710;23.192;2022-07-23T10:14:57;5.35;;;4.85;;
12788;SDS011;6458;42.710;23.192;2022-07-23T10:17:25;5.18;;;4.78;;
12788;SDS011;6458;42.710;23.192;2022-07-23T10:19:51;4.68;;;4.32;;
12788;SDS011;6458;42.710;23.192;2022-07-23T10:22:19;5.13;;;4.72;;
12788;SDS011;6458;42.710;23.192;2022-07-23T10:24:47;5.10;;;4.70;;
12788;SDS011;6458;42.710;23.192;2022-07-23T10:27:22;5.57;;;5.13;;
12788;SDS011;6458;42.710;23.192;2022-07-23T10:29:54;5.05;;;4.55;;
12788;SDS011;6458;42.710;23.192;2022-07-23T10:32:30;6.43;;;5.88;;
12788;SDS011;6458;42.710;23.192;2022-07-23T10:35:03;7.65;;;4.97;;
12788;SDS011;6458;42.710;23.192;2022-07-23T10:37:35;5.43;;;5.00;;
12788;SDS011;6458;42.710;23.192;2022-07-23T10:40:09;5.07;;;4.60;;
12788;SDS011;6458;42.710;23.192;2022-07-23T10:42:36;5.65;;;4.75;;
12788;SDS011;6458;42.710;23.192;2022-07-23T10:47:46;4.90;;;4.47;;
12788;SDS011;6458;42.710;23.192;2022-07-23T10:50:23;7.35;;;5.07;;
12788;SDS011;6458;42.710;23.192;2022-07-23T10:53:12;5.22;;;4.68;;
12788;SDS011;6458;42.710;23.192;2022-07-23T10:55:51;4.88;;;4.53;;
12788;SDS011;6458;42.710;23.192;2022-07-23T10:58:18;4.70;;;4.22;;
12788;SDS011;6458;42.710;23.192;2022-07-23T11:00:45;4.72;;;4.30;;
12788;SDS011;6458;42.710;23.192;2022-07-23T11:03:30;5.53;;;4.63;;
12788;SDS011;6458;42.710;23.192;2022-07-23T11:05:58;5.32;;;4.30;;
12788;SDS011;6458;42.710;23.192;2022-07-23T11:08:25;4.82;;;4.28;;
12788;SDS011;6458;42.710;23.192;2022-07-23T11:10:52;5.43;;;4.65;;
12788;SDS011;6458;42.710;23.192;2022-07-23T11:13:29;7.88;;;4.38;;
12788;SDS011;6458;42.710;23.192;2022-07-23T11:16:12;6.60;;;4.55;;
12788;SDS011;6458;42.710;23.192;2022-07-23T11:18:58;4.40;;;4.00;;
12788;SDS011;6458;42.710;23.192;2022-07-23T11:24:09;5.30;;;4.05;;
12788;SDS011;6458;42.710;23.192;2022-07-23T11:26:49;5.15;;;4.65;;
12788;SDS011;6458;42.710;23.192;2022-07-23T11:32:03;5.18;;;4.68;;
12788;SDS011;6458;42.710;23.192;2022-07-23T11:34:32;4.55;;;3.95;;
12788;SDS011;6458;42.710;23.192;2022-07-23T11:36:59;5.25;;;4.43;;
12788;SDS011;6458;42.710;23.192;2022-07-23T11:39:26;7.43;;;4.63;;
12788;SDS011;6458;42.710;23.192;2022-07-23T11:41:53;5.43;;;4.30;;
12788;SDS011;6458;42.710;23.192;2022-07-23T11:44:26;6.45;;;4.38;;
12788;SDS011;6458;42.710;23.192;2022-07-23T11:46:54;4.70;;;4.30;;
12788;SDS011;6458;42.710;23.192;2022-07-23T11:49:21;7.85;;;4.60;;
12788;SDS011;6458;42.710;23.192;2022-07-23T11:51:55;5.57;;;4.25;;
12788;SDS011;6458;42.710;23.192;2022-07-23T11:54:28;5.47;;;4.93;;
12788;SDS011;6458;42.710;23.192;2022-07-23T11:56:55;5.10;;;4.70;;
12788;SDS011;6458;42.710;23.192;2022-07-23T11:59:21;5.80;;;4.78;;
12788;SDS011;6458;42.710;23.192;2022-07-23T12:01:55;5.22;;;4.72;;
12788;SDS011;6458;42.710;23.192;2022-07-23T12:04:22;4.55;;;4.25;;
12788;SDS011;6458;42.710;23.192;2022-07-23T12:06:49;5.70;;;4.35;;
12788;SDS011;6458;42.710;23.192;2022-07-23T12:09:17;6.68;;;4.47;;
12788;SDS011;6458;42.710;23.192;2022-07-23T12:11:56;4.80;;;4.40;;
12788;SDS011;6458;42.710;23.192;2022-07-23T12:14:23;5.50;;;4.55;;
12788;SDS011;6458;42.710;23.192;2022-07-23T12:19:31;5.47;;;4.55;;
12788;SDS011;6458;42.710;23.192;2022-07-23T12:21:58;4.70;;;4.32;;
12788;SDS011;6458;42.710;23.192;2022-07-23T12:24:26;5.38;;;4.65;;
12788;SDS011;6458;42.710;23.192;2022-07-23T12:27:08;4.80;;;4.30;;
12788;SDS011;6458;42.710;23.192;2022-07-23T12:29:35;5.50;;;4.80;;
12788;SDS011;6458;42.710;23.192;2022-07-23T12:32:02;5.13;;;4.70;;
12788;SDS011;6458;42.710;23.192;2022-07-23T12:34:29;5.90;;;4.32;;
12788;SDS011;6458;42.710;23.192;2022-07-23T12:36:55;5.05;;;4.65;;
12788;SDS011;6458;42.710;23.192;2022-07-23T12:39:33;5.20;;;4.70;;
12788;SDS011;6458;42.710;23.192;2022-07-23T12:42:00;7.25;;;4.88;;
12788;SDS011;6458;42.710;23.192;2022-07-23T12:44:27;5.40;;;4.88;;
12788;SDS011;6458;42.710;23.192;2022-07-23T12:46:54;5.22;;;4.55;;
12788;SDS011;6458;42.710;23.192;2022-07-23T12:49:27;4.93;;;4.50;;
12788;SDS011;6458;42.710;23.192;2022-07-23T12:51:54;4.90;;;4.50;;
12788;SDS011;6458;42.710;23.192;2022-07-23T12:54:26;4.65;;;4.13;;
12788;SDS011;6458;42.710;23.192;2022-07-23T12:56:54;4.72;;;4.32;;
12788;SDS011;6458;42.710;23.192;2022-07-23T12:59:21;5.63;;;4.20;;
12788;SDS011;6458;42.710;23.192;2022-07-23T13:01:53;6.07;;;4.47;;
12788;SDS011;6458;42.710;23.192;2022-07-23T13:04:21;5.45;;;4.35;;
12788;SDS011;6458;42.710;23.192;2022-07-23T13:06:50;4.88;;;4.40;;
12788;SDS011;6458;42.710;23.192;2022-07-23T13:09:17;4.70;;;4.18;;
12788;SDS011;6458;42.710;23.192;2022-07-23T13:11:44;5.88;;;4.00;;
12788;SDS011;6458;42.710;23.192;2022-07-23T13:14:13;5.10;;;3.78;;
12788;SDS011;6458;42.710;23.192;2022-07-23T13:16:40;4.20;;;3.85;;
12788;SDS011;6458;42.710;23.192;2022-07-23T13:19:07;6.20;;;3.85;;
12788;SDS011;6458;42.710;23.192;2022-07-23T13:21:34;5.78;;;4.22;;
12788;SDS011;6458;42.710;23.192;2022-07-23T13:24:00;5.72;;;4.30;;
12788;SDS011;6458;42.710;23.192;2022-07-23T13:26:27;7.00;;;4.30;;
12788;SDS011;6458;42.710;23.192;2022-07-23T13:28:54;6.07;;;4.78;;
12788;SDS011;6458;42.710;23.192;2022-07-23T13:31:22;6.32;;;4.40;;
12788;SDS011;6458;42.710;23.192;2022-07-23T13:33:54;5.35;;;4.00;;
12788;SDS011;6458;42.710;23.192;2022-07-23T13:36:20;5.50;;;4.18;;
12788;SDS011;6458;42.710;23.192;2022-07-23T13:38:47;7.50;;;4.40;;
12788;SDS011;6458;42.710;23.192;2022-07-23T13:41:14;5.80;;;4.32;;
12788;SDS011;6458;42.710;23.192;2022-07-23T13:43:42;5.15;;;4.35;;
12788;SDS011;6458;42.710;23.192;2022-07-23T13:46:09;4.45;;;4.05;;
12788;SDS011;6458;42.710;23.192;2022-07-23T13:48:37;9.73;;;4.32;;
12788;SDS011;6458;42.710;23.192;2022-07-23T13:51:04;5.97;;;4.00;;
12788;SDS011;6458;42.710;23.192;2022-07-23T13:53:31;4.32;;;4.00;;
12788;SDS011;6458;42.710;23.192;2022-07-23T13:55:57;5.05;;;4.30;;
12788;SDS011;6458;42.710;23.192;2022-07-23T13:58:24;5.53;;;4.28;;
12788;SDS011;6458;42.710;23.192;2022-07-23T14:00:52;6.88;;;4.47;;
12788;SDS011;6458;42.710;23.192;2022-07-23T14:03:20;6.72;;;4.32;;
12788;SDS011;6458;42.710;23.192;2022-07-23T14:05:49;5.68;;;4.38;;
12788;SDS011;6458;42.710;23.192;2022-07-23T14:08:16;5.80;;;3.60;;
12788;SDS011;6458;42.710;23.192;2022-07-23T14:10:42;4.57;;;4.13;;
12788;SDS011;6458;42.710;23.192;2022-07-23T14:13:09;6.20;;;4.00;;
12788;SDS011;6458;42.710;23.192;2022-07-23T14:15:36;4.75;;;4.32;;
12788;SDS011;6458;42.710;23.192;2022-07-23T14:18:05;5.10;;;4.05;;
12788;SDS011;6458;42.710;23.192;2022-07-23T14:20:32;4.95;;;3.92;;
12788;SDS011;6458;42.710;23.192;2022-07-23T14:23:00;6.40;;;4.22;;
12788;SDS011;6458;42.710;23.192;2022-07-23T14:25:27;6.30;;;4.32;;
12788;SDS011;6458;42.710;23.192;2022-07-23T14:27:54;4.80;;;4.35;;
12788;SDS011;6458;42.710;23.192;2022-07-23T14:30:20;5.78;;;4.13;;
12788;SDS011;6458;42.710;23.192;2022-07-23T14:32:49;7.28;;;4.47;;
12788;SDS011;6458;42.710;23.192;2022-07-23T14:35:15;5.45;;;4.10;;
12788;SDS011;6458;42.710;23.192;2022-07-23T14:37:44;4.50;;;4.20;;
12788;SDS011;6458;42.710;23.192;2022-07-23T14:40:12;5.00;;;4.60;;
12788;SDS011;6458;42.710;23.192;2022-07-23T14:42:39;4.35;;;4.03;;
12788;SDS011;6458;42.710;23.192;2022-07-23T14:45:06;5.80;;;4.40;;
12788;SDS011;6458;42.710;23.192;2022-07-23T14:47:32;5.07;;;4.40;;
12788;SDS011;6458;42.710;23.192;2022-07-23T14:49:59;8.10;;;4.38;;
12788;SDS011;6458;42.710;23.192;2022-07-23T14:52:25;5.15;;;4.68;;
12788;SDS011;6458;42.710;23.192;2022-07-23T14:54:52;4.40;;;4.00;;
12788;SDS011;6458;42.710;23.192;2022-07-23T14:57:20;7.13;;;4.47;;
12788;SDS011;6458;42.710;23.192;2022-07-23T14:59:47;6.68;;;5.50;;
12788;SDS011;6458;42.710;23.192;2022-07-23T15:02:13;5.57;;;4.40;;
12788;SDS011;6458;42.710;23.192;2022-07-23T15:04:40;4.60;;;3.85;;